sensor_id;sensor_type;location;lat;lon;timestamp;pressure;altitude;pressure_sealevel;temperature;humidity
60920;BME280;59039;52.108;19.942;2022-12-18T00:01:19;102119.66;;;-2.95;81.15
60920;BME280;59039;52.108;19.942;2022-12-18T00:03:45;102118.98;;;-2.97;81.15
60920;BME280;59039;52.108;19.942;2022-12-18T00:06:11;102121.66;;;-2.97;81.14
60920;BME280;59039;52.108;19.942;2022-12-18T00:08:36;102123.44;;;-2.99;81.21
60920;BME280;59039;52.108;19.942;2022-12-18T00:11:08;102125.42;;;-3.00;81.14
60920;BME280;59039;52.108;19.942;2022-12-18T00:13:35;102126.16;;;-3.02;81.20
60920;BME280;59039;52.108;19.942;2022-12-18T00:16:09;102130.60;;;-3.02;81.23
60920;BME280;59039;52.108;19.942;2022-12-18T00:18:35;102131.67;;;-3.02;81.16
60920;BME280;59039;52.108;19.942;2022-12-18T00:21:02;102131.55;;;-3.05;81.27
60920;BME280;59039;52.108;19.942;2022-12-18T00:23:28;102130.71;;;-3.09;81.30
60920;BME280;59039;52.108;19.942;2022-12-18T00:25:54;102135.37;;;-3.11;81.22
60920;BME280;59039;52.108;19.942;2022-12-18T00:28:19;102135.92;;;-3.12;81.36
60920;BME280;59039;52.108;19.942;2022-12-18T00:30:45;102140.36;;;-3.13;81.46
60920;BME280;59039;52.108;19.942;2022-12-18T00:33:10;102145.84;;;-3.12;81.56
60920;BME280;59039;52.108;19.942;2022-12-18T00:35:35;102140.52;;;-3.11;81.50
60920;BME280;59039;52.108;19.942;2022-12-18T00:38:00;102144.05;;;-3.11;81.53
60920;BME280;59039;52.108;19.942;2022-12-18T00:40:26;102149.37;;;-3.11;81.59
60920;BME280;59039;52.108;19.942;2022-12-18T00:42:51;102153.46;;;-3.11;81.63
60920;BME280;59039;52.108;19.942;2022-12-18T00:45:16;102152.23;;;-3.12;81.59
60920;BME280;59039;52.108;19.942;2022-12-18T00:47:41;102155.65;;;-3.16;81.61
60920;BME280;59039;52.108;19.942;2022-12-18T00:50:07;102156.05;;;-3.19;81.68
60920;BME280;59039;52.108;19.942;2022-12-18T00:52:33;102166.55;;;-3.21;81.91
60920;BME280;59039;52.108;19.942;2022-12-18T00:54:58;102170.65;;;-3.23;81.88
60920;BME280;59039;52.108;19.942;2022-12-18T00:57:23;102179.16;;;-3.23;81.88
60920;BME280;59039;52.108;19.942;2022-12-18T00:59:48;102183.60;;;-3.22;82.03
60920;BME280;59039;52.108;19.942;2022-12-18T01:02:13;102179.32;;;-3.21;82.01
60920;BME280;59039;52.108;19.942;2022-12-18T01:04:39;102185.16;;;-3.20;81.94
60920;BME280;59039;52.108;19.942;2022-12-18T01:07:04;102187.23;;;-3.18;81.94
60920;BME280;59039;52.108;19.942;2022-12-18T01:09:29;102187.92;;;-3.16;81.92
60920;BME280;59039;52.108;19.942;2022-12-18T01:11:54;102191.45;;;-3.15;81.95
60920;BME280;59039;52.108;19.942;2022-12-18T01:14:20;102193.91;;;-3.12;81.96
60920;BME280;59039;52.108;19.942;2022-12-18T01:16:45;102197.25;;;-3.12;82.01
60920;BME280;59039;52.108;19.942;2022-12-18T01:19:10;102200.27;;;-3.12;81.98
60920;BME280;59039;52.108;19.942;2022-12-18T01:21:36;102195.65;;;-3.11;82.07
60920;BME280;59039;52.108;19.942;2022-12-18T01:24:01;102198.98;;;-3.09;82.10
60920;BME280;59039;52.108;19.942;2022-12-18T01:26:26;102202.48;;;-3.06;82.25
60920;BME280;59039;52.108;19.942;2022-12-18T01:28:54;102206.40;;;-3.07;82.04
60920;BME280;59039;52.108;19.942;2022-12-18T01:31:22;102211.20;;;-3.08;81.97
60920;BME280;59039;52.108;19.942;2022-12-18T01:33:48;102211.20;;;-3.07;81.93
60920;BME280;59039;52.108;19.942;2022-12-18T01:38:52;102211.36;;;-3.06;81.81
60920;BME280;59039;52.108;19.942;2022-12-18T01:41:20;102213.83;;;-3.06;81.70
60920;BME280;59039;52.108;19.942;2022-12-18T01:43:57;102220.58;;;-3.06;81.76
60920;BME280;59039;52.108;19.942;2022-12-18T01:46:23;102221.09;;;-3.05;81.58
60920;BME280;59039;52.108;19.942;2022-12-18T01:48:53;102221.46;;;-3.06;81.52
60920;BME280;59039;52.108;19.942;2022-12-18T01:51:20;102228.42;;;-3.10;81.36
60920;BME280;59039;52.108;19.942;2022-12-18T01:53:46;102234.52;;;-3.12;81.24
60920;BME280;59039;52.108;19.942;2022-12-18T01:56:15;102242.52;;;-3.15;81.26
60920;BME280;59039;52.108;19.942;2022-12-18T01:59:00;102243.80;;;-3.19;81.26
60920;BME280;59039;52.108;19.942;2022-12-18T02:01:29;102248.83;;;-3.22;81.30
60920;BME280;59039;52.108;19.942;2022-12-18T02:03:55;102244.25;;;-3.25;81.26
60920;BME280;59039;52.108;19.942;2022-12-18T02:06:32;102252.27;;;-3.26;81.35
60920;BME280;59039;52.108;19.942;2022-12-18T02:09:26;102267.92;;;-3.31;81.33
60920;BME280;59039;52.108;19.942;2022-12-18T02:12:04;102269.04;;;-3.35;81.35
60920;BME280;59039;52.108;19.942;2022-12-18T02:14:44;102267.88;;;-3.41;81.29
60920;BME280;59039;52.108;19.942;2022-12-18T02:17:17;102271.11;;;-3.44;81.38
60920;BME280;59039;52.108;19.942;2022-12-18T02:19:50;102272.58;;;-3.48;81.50
60920;BME280;59039;52.108;19.942;2022-12-18T02:27:39;102293.55;;;-3.52;81.79
60920;BME280;59039;52.108;19.942;2022-12-18T02:30:05;102295.64;;;-3.51;81.65
60920;BME280;59039;52.108;19.942;2022-12-18T02:32:37;102294.25;;;-3.52;81.75
60920;BME280;59039;52.108;19.942;2022-12-18T02:35:06;102298.86;;;-3.53;81.90
60920;BME280;59039;52.108;19.942;2022-12-18T02:37:33;102296.06;;;-3.56;81.89
60920;BME280;59039;52.108;19.942;2022-12-18T02:40:00;102303.51;;;-3.57;81.99
60920;BME280;59039;52.108;19.942;2022-12-18T02:42:27;102311.30;;;-3.55;82.05
60920;BME280;59039;52.108;19.942;2022-12-18T02:44:53;102310.21;;;-3.54;82.13
60920;BME280;59039;52.108;19.942;2022-12-18T02:47:20;102318.88;;;-3.52;82.22
60920;BME280;59039;52.108;19.942;2022-12-18T02:55:17;102324.50;;;-3.48;82.27
60920;BME280;59039;52.108;19.942;2022-12-18T02:57:53;102323.02;;;-3.44;82.28
60920;BME280;59039;52.108;19.942;2022-12-18T03:00:25;102324.21;;;-3.40;82.35
60920;BME280;59039;52.108;19.942;2022-12-18T03:05:27;102324.86;;;-3.34;82.26
60920;BME280;59039;52.108;19.942;2022-12-18T03:08:15;102323.42;;;-3.32;82.20
60920;BME280;59039;52.108;19.942;2022-12-18T03:10:50;102328.03;;;-3.33;82.15
60920;BME280;59039;52.108;19.942;2022-12-18T03:13:21;102329.27;;;-3.32;82.08
60920;BME280;59039;52.108;19.942;2022-12-18T03:15:52;102329.61;;;-3.32;82.03
60920;BME280;59039;52.108;19.942;2022-12-18T03:18:56;102329.61;;;-3.32;81.85
60920;BME280;59039;52.108;19.942;2022-12-18T03:21:28;102335.27;;;-3.30;81.99
60920;BME280;59039;52.108;19.942;2022-12-18T03:23:55;102338.98;;;-3.29;81.97
60920;BME280;59039;52.108;19.942;2022-12-18T03:26:23;102339.14;;;-3.28;81.89
60920;BME280;59039;52.108;19.942;2022-12-18T03:29:12;102340.88;;;-3.26;81.83
60920;BME280;59039;52.108;19.942;2022-12-18T03:31:40;102342.27;;;-3.24;81.82
60920;BME280;59039;52.108;19.942;2022-12-18T03:34:26;102341.75;;;-3.24;81.73
60920;BME280;59039;52.108;19.942;2022-12-18T03:36:54;102342.11;;;-3.24;81.72
60920;BME280;59039;52.108;19.942;2022-12-18T03:39:19;102345.30;;;-3.24;81.79
60920;BME280;59039;52.108;19.942;2022-12-18T03:41:56;102345.82;;;-3.23;81.84
60920;BME280;59039;52.108;19.942;2022-12-18T03:49:35;102355.32;;;-3.31;81.86
60920;BME280;59039;52.108;19.942;2022-12-18T03:52:10;102357.77;;;-3.30;81.91
60920;BME280;59039;52.108;19.942;2022-12-18T03:54:38;102360.06;;;-3.29;81.91
60920;BME280;59039;52.108;19.942;2022-12-18T03:57:08;102373.17;;;-3.27;81.88
60920;BME280;59039;52.108;19.942;2022-12-18T03:59:35;102381.65;;;-3.26;81.76
60920;BME280;59039;52.108;19.942;2022-12-18T04:02:01;102386.48;;;-3.27;81.78
60920;BME280;59039;52.108;19.942;2022-12-18T04:04:30;102391.42;;;-3.27;81.70
60920;BME280;59039;52.108;19.942;2022-12-18T04:06:57;102395.85;;;-3.26;81.73
60920;BME280;59039;52.108;19.942;2022-12-18T04:09:23;102401.50;;;-3.25;81.78
60920;BME280;59039;52.108;19.942;2022-12-18T04:11:49;102410.90;;;-3.24;81.71
60920;BME280;59039;52.108;19.942;2022-12-18T04:14:16;102413.88;;;-3.23;81.80
60920;BME280;59039;52.108;19.942;2022-12-18T04:16:41;102420.41;;;-3.20;81.88
60920;BME280;59039;52.108;19.942;2022-12-18T04:19:06;102416.85;;;-3.19;81.79
60920;BME280;59039;52.108;19.942;2022-12-18T04:21:32;102420.58;;;-3.19;81.80
60920;BME280;59039;52.108;19.942;2022-12-18T04:23:57;102424.29;;;-3.18;81.90
60920;BME280;59039;52.108;19.942;2022-12-18T04:26:22;102426.42;;;-3.17;81.90
60920;BME280;59039;52.108;19.942;2022-12-18T04:28:47;102431.17;;;-3.15;81.93
60920;BME280;59039;52.108;19.942;2022-12-18T04:31:13;102428.86;;;-3.14;81.81
60920;BME280;59039;52.108;19.942;2022-12-18T04:33:38;102432.75;;;-3.14;81.66
60920;BME280;59039;52.108;19.942;2022-12-18T04:36:03;102435.61;;;-3.15;81.52
60920;BME280;59039;52.108;19.942;2022-12-18T04:38:29;102441.30;;;-3.16;81.63
60920;BME280;59039;52.108;19.942;2022-12-18T04:40:54;102444.66;;;-3.16;81.70
60920;BME280;59039;52.108;19.942;2022-12-18T04:43:19;102447.11;;;-3.14;81.69
60920;BME280;59039;52.108;19.942;2022-12-18T04:45:45;102454.38;;;-3.14;81.73
60920;BME280;59039;52.108;19.942;2022-12-18T04:48:10;102461.83;;;-3.13;81.77
60920;BME280;59039;52.108;19.942;2022-12-18T04:50:35;102463.40;;;-3.11;81.86
60920;BME280;59039;52.108;19.942;2022-12-18T04:53:00;102462.70;;;-3.11;81.54
60920;BME280;59039;52.108;19.942;2022-12-18T04:55:26;102465.73;;;-3.13;81.52
60920;BME280;59039;52.108;19.942;2022-12-18T04:57:52;102458.47;;;-3.13;81.44
60920;BME280;59039;52.108;19.942;2022-12-18T05:00:18;102460.25;;;-3.14;81.39
60920;BME280;59039;52.108;19.942;2022-12-18T05:02:44;102462.20;;;-3.14;81.42
60920;BME280;59039;52.108;19.942;2022-12-18T05:05:09;102464.70;;;-3.16;81.40
60920;BME280;59039;52.108;19.942;2022-12-18T05:07:35;102467.90;;;-3.18;81.34
60920;BME280;59039;52.108;19.942;2022-12-18T05:10:00;102476.09;;;-3.19;81.51
60920;BME280;59039;52.108;19.942;2022-12-18T05:12:25;102473.23;;;-3.19;81.56
60920;BME280;59039;52.108;19.942;2022-12-18T05:14:51;102476.95;;;-3.18;81.58
60920;BME280;59039;52.108;19.942;2022-12-18T05:17:16;102472.70;;;-3.19;81.51
60920;BME280;59039;52.108;19.942;2022-12-18T05:19:41;102476.05;;;-3.18;81.74
60920;BME280;59039;52.108;19.942;2022-12-18T05:22:07;102482.10;;;-3.19;81.51
60920;BME280;59039;52.108;19.942;2022-12-18T05:24:32;102490.08;;;-3.18;81.53
60920;BME280;59039;52.108;19.942;2022-12-18T05:26:57;102485.45;;;-3.18;81.53
60920;BME280;59039;52.108;19.942;2022-12-18T05:29:23;102484.03;;;-3.17;81.51
60920;BME280;59039;52.108;19.942;2022-12-18T05:31:48;102487.92;;;-3.16;81.55
60920;BME280;59039;52.108;19.942;2022-12-18T05:34:13;102493.40;;;-3.15;81.57
60920;BME280;59039;52.108;19.942;2022-12-18T05:36:39;102493.05;;;-3.14;81.58
60920;BME280;59039;52.108;19.942;2022-12-18T05:39:04;102492.69;;;-3.14;81.52
60920;BME280;59039;52.108;19.942;2022-12-18T05:41:29;102493.58;;;-3.15;81.57
60920;BME280;59039;52.108;19.942;2022-12-18T05:43:54;102494.48;;;-3.15;81.54
60920;BME280;59039;52.108;19.942;2022-12-18T05:46:20;102498.01;;;-3.13;81.74
60920;BME280;59039;52.108;19.942;2022-12-18T05:48:45;102501.53;;;-3.11;81.61
60920;BME280;59039;52.108;19.942;2022-12-18T05:51:13;102501.70;;;-3.11;81.64
60920;BME280;59039;52.108;19.942;2022-12-18T05:53:38;102499.55;;;-3.10;81.67
60920;BME280;59039;52.108;19.942;2022-12-18T05:56:06;102504.32;;;-3.07;81.66
60920;BME280;59039;52.108;19.942;2022-12-18T05:58:33;102509.29;;;-3.08;81.60
60920;BME280;59039;52.108;19.942;2022-12-18T06:01:12;102512.65;;;-3.07;81.57
60920;BME280;59039;52.108;19.942;2022-12-18T06:03:38;102510.34;;;-3.06;81.75
60920;BME280;59039;52.108;19.942;2022-12-18T06:06:03;102512.64;;;-3.05;81.74
60920;BME280;59039;52.108;19.942;2022-12-18T06:08:29;102514.93;;;-3.04;81.75
60920;BME280;59039;52.108;19.942;2022-12-18T06:10:54;102516.67;;;-3.02;81.76
60920;BME280;59039;52.108;19.942;2022-12-18T06:13:20;102521.82;;;-3.00;81.61
60920;BME280;59039;52.108;19.942;2022-12-18T06:15:45;102527.84;;;-3.01;81.46
60920;BME280;59039;52.108;19.942;2022-12-18T06:18:10;102533.34;;;-3.01;81.50
60920;BME280;59039;52.108;19.942;2022-12-18T06:20:35;102533.52;;;-3.01;81.59
60920;BME280;59039;52.108;19.942;2022-12-18T06:23:01;102538.66;;;-3.01;81.69
60920;BME280;59039;52.108;19.942;2022-12-18T06:25:26;102542.38;;;-3.00;81.49
60920;BME280;59039;52.108;19.942;2022-12-18T06:27:51;102543.98;;;-3.00;81.61
60920;BME280;59039;52.108;19.942;2022-12-18T06:30:17;102541.30;;;-2.99;81.60
60920;BME280;59039;52.108;19.942;2022-12-18T06:32:42;102549.09;;;-2.98;81.54
60920;BME280;59039;52.108;19.942;2022-12-18T06:35:07;102554.77;;;-2.98;81.64
60920;BME280;59039;52.108;19.942;2022-12-18T06:37:32;102557.59;;;-2.96;81.69
60920;BME280;59039;52.108;19.942;2022-12-18T06:39:58;102567.15;;;-2.94;81.49
60920;BME280;59039;52.108;19.942;2022-12-18T06:42:24;102574.94;;;-2.93;81.47
60920;BME280;59039;52.108;19.942;2022-12-18T06:44:49;102581.67;;;-2.92;81.24
60920;BME280;59039;52.108;19.942;2022-12-18T06:47:14;102581.50;;;-2.93;81.33
60920;BME280;59039;52.108;19.942;2022-12-18T06:49:39;102589.84;;;-2.92;81.35
60920;BME280;59039;52.108;19.942;2022-12-18T06:52:04;102590.19;;;-2.93;81.27
60920;BME280;59039;52.108;19.942;2022-12-18T06:54:30;102587.89;;;-2.92;81.23
60920;BME280;59039;52.108;19.942;2022-12-18T06:56:55;102594.27;;;-2.93;81.15
60920;BME280;59039;52.108;19.942;2022-12-18T06:59:20;102598.36;;;-2.95;81.16
60920;BME280;59039;52.108;19.942;2022-12-18T07:01:45;102605.31;;;-2.97;81.19
60920;BME280;59039;52.108;19.942;2022-12-18T07:04:11;102612.42;;;-2.99;81.36
60920;BME280;59039;52.108;19.942;2022-12-18T07:06:36;102613.49;;;-2.99;81.14
60920;BME280;59039;52.108;19.942;2022-12-18T07:09:01;102611.23;;;-3.03;80.85
60920;BME280;59039;52.108;19.942;2022-12-18T07:11:26;102615.33;;;-3.06;80.92
60920;BME280;59039;52.108;19.942;2022-12-18T07:13:52;102617.13;;;-3.09;80.75
60920;BME280;59039;52.108;19.942;2022-12-18T07:16:19;102621.77;;;-3.13;80.87
60920;BME280;59039;52.108;19.942;2022-12-18T07:18:45;102629.06;;;-3.15;81.01
60920;BME280;59039;52.108;19.942;2022-12-18T07:21:13;102631.37;;;-3.16;80.88
60920;BME280;59039;52.108;19.942;2022-12-18T07:23:39;102632.44;;;-3.17;80.92
60920;BME280;59039;52.108;19.942;2022-12-18T07:26:06;102638.49;;;-3.19;80.95
60920;BME280;59039;52.108;19.942;2022-12-18T07:28:33;102639.92;;;-3.21;81.20
60920;BME280;59039;52.108;19.942;2022-12-18T07:31:12;102648.79;;;-3.20;81.37
60920;BME280;59039;52.108;19.942;2022-12-18T07:33:38;102649.33;;;-3.20;81.40
60920;BME280;59039;52.108;19.942;2022-12-18T07:36:05;102658.88;;;-3.19;81.29
60920;BME280;59039;52.108;19.942;2022-12-18T07:38:32;102661.36;;;-3.18;81.33
60920;BME280;59039;52.108;19.942;2022-12-18T07:41:08;102664.02;;;-3.18;81.30
60920;BME280;59039;52.108;19.942;2022-12-18T07:43:34;102671.27;;;-3.18;81.31
60920;BME280;59039;52.108;19.942;2022-12-18T07:46:00;102675.36;;;-3.17;81.35
60920;BME280;59039;52.108;19.942;2022-12-18T07:48:25;102679.44;;;-3.18;81.22
60920;BME280;59039;52.108;19.942;2022-12-18T07:50:51;102678.02;;;-3.18;81.39
60920;BME280;59039;52.108;19.942;2022-12-18T07:53:16;102680.31;;;-3.17;81.40
60920;BME280;59039;52.108;19.942;2022-12-18T07:55:41;102681.02;;;-3.15;81.37
60920;BME280;59039;52.108;19.942;2022-12-18T07:58:07;102682.09;;;-3.16;81.23
60920;BME280;59039;52.108;19.942;2022-12-18T08:00:32;102681.55;;;-3.16;81.39
60920;BME280;59039;52.108;19.942;2022-12-18T08:02:58;102684.55;;;-3.15;81.38
60920;BME280;59039;52.108;19.942;2022-12-18T08:05:23;102680.83;;;-3.14;81.27
60920;BME280;59039;52.108;19.942;2022-12-18T08:07:49;102677.98;;;-3.13;81.27
60920;BME280;59039;52.108;19.942;2022-12-18T08:10:14;102678.69;;;-3.12;81.28
60920;BME280;59039;52.108;19.942;2022-12-18T08:12:39;102679.05;;;-3.12;81.21
60920;BME280;59039;52.108;19.942;2022-12-18T08:15:06;102676.73;;;-3.12;81.15
60920;BME280;59039;52.108;19.942;2022-12-18T08:17:31;102679.03;;;-3.12;81.11
60920;BME280;59039;52.108;19.942;2022-12-18T08:19:56;102676.91;;;-3.12;81.10
60920;BME280;59039;52.108;19.942;2022-12-18T08:22:21;102689.51;;;-3.12;81.18
60920;BME280;59039;52.108;19.942;2022-12-18T08:24:47;102687.20;;;-3.11;81.20
60920;BME280;59039;52.108;19.942;2022-12-18T08:27:12;102693.05;;;-3.10;81.13
60920;BME280;59039;52.108;19.942;2022-12-18T08:29:37;102699.77;;;-3.10;81.12
60920;BME280;59039;52.108;19.942;2022-12-18T08:32:02;102702.08;;;-3.09;81.11
60920;BME280;59039;52.108;19.942;2022-12-18T08:34:28;102712.00;;;-3.07;81.23
60920;BME280;59039;52.108;19.942;2022-12-18T08:36:53;102714.65;;;-3.05;81.19
60920;BME280;59039;52.108;19.942;2022-12-18T08:39:18;102717.28;;;-3.03;80.90
60920;BME280;59039;52.108;19.942;2022-12-18T08:41:43;102727.55;;;-3.02;81.17
60920;BME280;59039;52.108;19.942;2022-12-18T08:44:08;102732.67;;;-2.99;81.19
60920;BME280;59039;52.108;19.942;2022-12-18T08:46:39;102732.69;;;-2.98;81.16
60920;BME280;59039;52.108;19.942;2022-12-18T08:49:05;102736.20;;;-2.95;81.15
60920;BME280;59039;52.108;19.942;2022-12-18T08:51:32;102734.23;;;-2.93;81.03
60920;BME280;59039;52.108;19.942;2022-12-18T08:53:57;102734.20;;;-2.90;80.92
60920;BME280;59039;52.108;19.942;2022-12-18T08:56:22;102745.00;;;-2.87;80.95
60920;BME280;59039;52.108;19.942;2022-12-18T08:58:51;102743.77;;;-2.86;81.04
60920;BME280;59039;52.108;19.942;2022-12-18T09:01:17;102741.27;;;-2.84;81.11
60920;BME280;59039;52.108;19.942;2022-12-18T09:03:42;102740.52;;;-2.81;81.07
60920;BME280;59039;52.108;19.942;2022-12-18T09:06:07;102742.63;;;-2.77;81.04
60920;BME280;59039;52.108;19.942;2022-12-18T09:08:33;102744.59;;;-2.77;80.40
60920;BME280;59039;52.108;19.942;2022-12-18T09:10:58;102749.18;;;-2.76;80.52
60920;BME280;59039;52.108;19.942;2022-12-18T09:13:23;102750.40;;;-2.74;80.76
60920;BME280;59039;52.108;19.942;2022-12-18T09:15:51;102753.59;;;-2.72;80.81
60920;BME280;59039;52.108;19.942;2022-12-18T09:18:18;102759.61;;;-2.69;80.55
60920;BME280;59039;52.108;19.942;2022-12-18T09:20:44;102762.42;;;-2.67;80.70
60920;BME280;59039;52.108;19.942;2022-12-18T09:23:10;102767.36;;;-2.64;80.76
60920;BME280;59039;52.108;19.942;2022-12-18T09:25:37;102762.73;;;-2.62;80.74
60920;BME280;59039;52.108;19.942;2022-12-18T09:28:04;102768.21;;;-2.60;80.71
60920;BME280;59039;52.108;19.942;2022-12-18T09:30:29;102771.05;;;-2.59;80.47
60920;BME280;59039;52.108;19.942;2022-12-18T09:32:55;102765.36;;;-2.59;80.28
60920;BME280;59039;52.108;19.942;2022-12-18T09:35:20;102767.50;;;-2.59;80.15
60920;BME280;59039;52.108;19.942;2022-12-18T09:37:46;102770.70;;;-2.60;80.22
60920;BME280;59039;52.108;19.942;2022-12-18T09:40:19;102764.16;;;-2.62;79.98
60920;BME280;59039;52.108;19.942;2022-12-18T09:42:49;102759.73;;;-2.63;80.03
60920;BME280;59039;52.108;19.942;2022-12-18T09:45:17;102754.06;;;-2.65;80.03
60920;BME280;59039;52.108;19.942;2022-12-18T09:47:45;102756.91;;;-2.66;80.15
60920;BME280;59039;52.108;19.942;2022-12-18T09:50:34;102758.84;;;-2.65;80.10
60920;BME280;59039;52.108;19.942;2022-12-18T09:53:10;102758.85;;;-2.64;79.75
60920;BME280;59039;52.108;19.942;2022-12-18T09:55:40;102756.38;;;-2.65;79.73
60920;BME280;59039;52.108;19.942;2022-12-18T10:00:34;102765.95;;;-2.64;79.80
60920;BME280;59039;52.108;19.942;2022-12-18T10:03:03;102768.62;;;-2.65;79.81
60920;BME280;59039;52.108;19.942;2022-12-18T10:05:49;102765.77;;;-2.64;80.07
60920;BME280;59039;52.108;19.942;2022-12-18T10:08:24;102761.01;;;-2.67;79.81
60920;BME280;59039;52.108;19.942;2022-12-18T10:10:53;102762.79;;;-2.68;79.93
60920;BME280;59039;52.108;19.942;2022-12-18T10:18:45;102779.83;;;-2.67;79.79
60920;BME280;59039;52.108;19.942;2022-12-18T10:21:21;102782.13;;;-2.68;79.68
60920;BME280;59039;52.108;19.942;2022-12-18T10:23:57;102784.27;;;-2.69;79.61
60920;BME280;59039;52.108;19.942;2022-12-18T10:26:25;102776.64;;;-2.69;79.65
60920;BME280;59039;52.108;19.942;2022-12-18T10:28:51;102773.80;;;-2.69;79.67
60920;BME280;59039;52.108;19.942;2022-12-18T10:31:20;102769.88;;;-2.68;79.65
60920;BME280;59039;52.108;19.942;2022-12-18T10:33:46;102770.60;;;-2.69;79.43
60920;BME280;59039;52.108;19.942;2022-12-18T10:36:12;102777.52;;;-2.69;79.47
60920;BME280;59039;52.108;19.942;2022-12-18T10:38:38;102785.86;;;-2.70;79.37
60920;BME280;59039;52.108;19.942;2022-12-18T10:41:06;102782.33;;;-2.72;78.97
60920;BME280;59039;52.108;19.942;2022-12-18T10:43:35;102785.91;;;-2.75;79.39
60920;BME280;59039;52.108;19.942;2022-12-18T10:48:48;102801.55;;;-2.78;79.36
60920;BME280;59039;52.108;19.942;2022-12-18T10:56:24;102776.00;;;-2.79;79.22
60920;BME280;59039;52.108;19.942;2022-12-18T10:58:56;102787.35;;;-2.81;79.36
60920;BME280;59039;52.108;19.942;2022-12-18T11:01:22;102792.16;;;-2.81;79.23
60920;BME280;59039;52.108;19.942;2022-12-18T11:04:08;102791.99;;;-2.81;79.28
60920;BME280;59039;52.108;19.942;2022-12-18T11:06:34;102798.73;;;-2.81;79.29
60920;BME280;59039;52.108;19.942;2022-12-18T11:09:32;102801.90;;;-2.78;79.32
60920;BME280;59039;52.108;19.942;2022-12-18T11:12:24;102804.89;;;-2.77;79.08
60920;BME280;59039;52.108;19.942;2022-12-18T11:14:51;102807.58;;;-2.78;78.99
60920;BME280;59039;52.108;19.942;2022-12-18T11:17:20;102804.75;;;-2.79;78.98
60920;BME280;59039;52.108;19.942;2022-12-18T11:19:55;102803.15;;;-2.81;78.92
60920;BME280;59039;52.108;19.942;2022-12-18T11:22:29;102801.39;;;-2.83;78.83
60920;BME280;59039;52.108;19.942;2022-12-18T11:25:16;102801.94;;;-2.84;78.88
60920;BME280;59039;52.108;19.942;2022-12-18T11:27:55;102801.06;;;-2.85;78.73
60920;BME280;59039;52.108;19.942;2022-12-18T11:30:25;102799.48;;;-2.89;78.74
60920;BME280;59039;52.108;19.942;2022-12-18T11:35:35;102807.89;;;-2.98;78.72
60920;BME280;59039;52.108;19.942;2022-12-18T11:38:13;102805.05;;;-3.01;78.72
60920;BME280;59039;52.108;19.942;2022-12-18T11:40:44;102799.77;;;-3.04;78.58
60920;BME280;59039;52.108;19.942;2022-12-18T11:43:16;102797.46;;;-3.07;78.87
60920;BME280;59039;52.108;19.942;2022-12-18T11:45:55;102790.40;;;-3.10;79.06
60920;BME280;59039;52.108;19.942;2022-12-18T11:48:28;102785.61;;;-3.10;79.10
60920;BME280;59039;52.108;19.942;2022-12-18T11:50:56;102784.55;;;-3.11;79.43
60920;BME280;59039;52.108;19.942;2022-12-18T11:53:24;102782.78;;;-3.11;79.36
60920;BME280;59039;52.108;19.942;2022-12-18T11:56:26;102783.30;;;-3.09;79.46
60920;BME280;59039;52.108;19.942;2022-12-18T11:58:52;102787.02;;;-3.08;79.33
60920;BME280;59039;52.108;19.942;2022-12-18T12:15:51;102811.84;;;-3.09;79.59
60920;BME280;59039;52.108;19.942;2022-12-18T12:20:54;102815.56;;;-3.07;79.32
60920;BME280;59039;52.108;19.942;2022-12-18T12:26:08;102826.73;;;-3.07;79.24
60920;BME280;59039;52.108;19.942;2022-12-18T12:28:59;102836.14;;;-3.07;79.32
60920;BME280;59039;52.108;19.942;2022-12-18T12:34:22;102837.93;;;-3.13;79.22
60920;BME280;59039;52.108;19.942;2022-12-18T12:37:19;102840.44;;;-3.16;79.03
60920;BME280;59039;52.108;19.942;2022-12-18T12:39:48;102842.02;;;-3.15;79.09
60920;BME280;59039;52.108;19.942;2022-12-18T12:42:37;102843.80;;;-3.16;79.07
60920;BME280;59039;52.108;19.942;2022-12-18T12:45:05;102853.39;;;-3.18;79.02
60920;BME280;59039;52.108;19.942;2022-12-18T12:47:40;102865.30;;;-3.20;79.19
60920;BME280;59039;52.108;19.942;2022-12-18T12:50:14;102871.31;;;-3.21;79.21
60920;BME280;59039;52.108;19.942;2022-12-18T12:52:50;102874.15;;;-3.22;79.27
60920;BME280;59039;52.108;19.942;2022-12-18T12:55:28;102873.44;;;-3.21;79.35
60920;BME280;59039;52.108;19.942;2022-12-18T12:59:04;102877.70;;;-3.21;79.35
60920;BME280;59039;52.108;19.942;2022-12-18T13:04:12;102878.41;;;-3.22;79.13
60920;BME280;59039;52.108;19.942;2022-12-18T13:06:49;102877.35;;;-3.22;79.25
60920;BME280;59039;52.108;19.942;2022-12-18T13:09:17;102878.41;;;-3.23;79.37
60920;BME280;59039;52.108;19.942;2022-12-18T13:11:44;102880.19;;;-3.23;79.29
60920;BME280;59039;52.108;19.942;2022-12-18T13:14:27;102876.84;;;-3.24;79.30
60920;BME280;59039;52.108;19.942;2022-12-18T13:19:44;102881.95;;;-3.24;79.26
60920;BME280;59039;52.108;19.942;2022-12-18T13:22:34;102880.73;;;-3.23;79.24
60920;BME280;59039;52.108;19.942;2022-12-18T13:24:59;102875.94;;;-3.24;79.26
60920;BME280;59039;52.108;19.942;2022-12-18T13:35:55;102861.06;;;-3.27;79.35
60920;BME280;59039;52.108;19.942;2022-12-18T13:41:01;102865.67;;;-3.26;79.16
60920;BME280;59039;52.108;19.942;2022-12-18T13:43:30;102866.91;;;-3.27;79.16
60920;BME280;59039;52.108;19.942;2022-12-18T13:48:25;102875.95;;;-3.27;79.22
60920;BME280;59039;52.108;19.942;2022-12-18T13:53:43;102880.20;;;-3.27;79.38
60920;BME280;59039;52.108;19.942;2022-12-18T13:56:15;102885.88;;;-3.26;79.42
60920;BME280;59039;52.108;19.942;2022-12-18T13:58:41;102890.66;;;-3.27;79.21
60920;BME280;59039;52.108;19.942;2022-12-18T14:01:21;102891.36;;;-3.27;79.10
60920;BME280;59039;52.108;19.942;2022-12-18T14:03:47;102898.48;;;-3.29;78.82
60920;BME280;59039;52.108;19.942;2022-12-18T14:06:12;102899.36;;;-3.30;79.08
60920;BME280;59039;52.108;19.942;2022-12-18T14:08:39;102900.77;;;-3.32;79.05
60920;BME280;59039;52.108;19.942;2022-12-18T14:11:06;102903.98;;;-3.32;79.31
60920;BME280;59039;52.108;19.942;2022-12-18T14:13:39;102910.70;;;-3.30;79.29